Time;durP1;ratioP1;P1;durP2;ratioP2;P2;SDS_P1;SDS_P2;PMS_P1;PMS_P2;Temp;Humidity;BMP_temperature;BMP_pressure;BME280_temperature;BME280_humidity;BME280_pressure;Samples;Min_cycle;Max_cycle;Signal;HPM_P1;HPM_P2
2023/09/18 04:48:45;;;;;;;;;;;;;;;13.95;65.28;100694.13;109325;1266;71213;-92
2023/09/18 06:11:45;;;;;;;;;;;;;;;18.23;66.49;100658.36;109397;1262;59238;-89
2023/09/18 06:14:46;;;;;;;;;;;;;;;19.09;66.39;100659.02;109274;1262;73224;-89
2023/09/18 06:49:53;;;;;;;;;;;;;;;27.58;63.66;100627.89;109354;1265;58908;-89
2023/09/18 06:52:53;;;;;;;;;;;;;;;28.34;63.14;100630.34;109366;1263;59101;-89
2023/09/18 06:56:19;;;;;;;;;;;;;;;29.04;62.81;100622.11;109346;1261;73481;-89
2023/09/18 06:59:47;;;;;;;;;;;;;;;29.37;62.46;100619.16;109298;1263;68352;-89
2023/09/18 07:03:14;;;;;;;;;;;;;;;30.04;62.43;100618.57;109289;1261;71009;-89
2023/09/18 07:06:40;;;;;;;;;;;;;;;31.00;62.25;100618.85;109303;1263;59265;-90
2023/09/18 07:10:08;;;;;;;;;;;;;;;31.77;61.62;100620.83;109352;1262;58815;-89
2023/09/18 07:13:34;;;;;;;;;;;;;;;32.39;61.38;100613.13;109311;1262;73200;-89
2023/09/18 07:17:01;;;;;;;;;;;;;;;32.89;61.37;100611.16;109239;1262;66709;-89
2023/09/18 07:20:28;;;;;;;;;;;;;;;33.58;60.83;100611.10;109165;1262;72068;-90
2023/09/18 07:23:56;;;;;;;;;;;;;;;34.03;60.45;100616.16;109301;1265;58830;-89
2023/09/18 07:27:25;;;;;;;;;;;;;;;34.09;60.04;100610.08;109334;1262;59220;-89
2023/09/18 07:30:52;;;;;;;;;;;;;;;34.40;59.34;100606.89;109254;1263;74429;-89
2023/09/18 07:34:20;;;;;;;;;;;;;;;34.17;58.85;100606.64;109296;1262;68339;-90
2023/09/18 07:37:46;;;;;;;;;;;;;;;33.92;58.35;100604.40;109253;1262;71418;-89
2023/09/18 07:41:15;;;;;;;;;;;;;;;33.30;58.21;100599.84;109265;1263;58819;-89
2023/09/18 07:44:39;;;;;;;;;;;;;;;33.15;58.15;100589.42;109287;1263;58926;-89
2023/09/18 07:48:06;;;;;;;;;;;;;;;33.71;57.32;100582.64;109213;1262;74153;-89
2023/09/18 07:51:31;;;;;;;;;;;;;;;35.10;56.01;100585.10;109291;1262;67861;-89
2023/09/18 07:55:00;;;;;;;;;;;;;;;36.17;54.95;100583.44;109268;1263;70936;-89
2023/09/18 07:58:27;;;;;;;;;;;;;;;37.17;54.18;100578.16;109286;1263;59075;-89
2023/09/18 08:01:54;;;;;;;;;;;;;;;38.17;53.62;100577.89;109128;1263;58960;-89
2023/09/18 08:05:21;;;;;;;;;;;;;;;39.11;52.98;100577.95;109211;1265;72580;-90
2023/09/18 08:08:50;;;;;;;;;;;;;;;39.94;52.56;100571.33;109279;1262;67941;-90
2023/09/18 08:12:26;;;;;;;;;;;;;;;;;;;;;
2023/09/18 08:15:44;;;;;;;;;;;;;;;40.90;51.18;100566.66;108754;1269;59289;-90
2023/09/18 08:19:10;;;;;;;;;;;;;;;41.25;50.37;100557.23;108805;1269;59591;-90
2023/09/18 08:22:38;;;;;;;;;;;;;;;41.33;49.93;100556.01;108760;1269;73302;-90
2023/09/18 08:26:05;;;;;;;;;;;;;;;39.68;49.41;100554.20;108771;1269;67311;-90
2023/09/18 08:29:37;;;;;;;;;;;;;;;37.47;49.73;100550.61;108752;1269;71955;-90
2023/09/18 08:33:03;;;;;;;;;;;;;;;35.58;49.61;100547.82;108746;1268;59226;-89
2023/09/18 08:36:31;;;;;;;;;;;;;;;34.13;49.07;100538.08;108807;1268;59954;-89
2023/09/18 08:40:09;;;;;;;;;;;;;;;32.96;48.86;100537.34;108815;1268;75724;-89
2023/09/18 08:43:30;;;;;;;;;;;;;;;31.88;48.37;100535.10;108736;1269;68044;-89
2023/09/18 08:46:56;;;;;;;;;;;;;;;30.89;48.04;100528.98;109061;1263;71912;-89
2023/09/18 08:50:23;;;;;;;;;;;;;;;30.02;47.78;100520.41;109293;1261;58962;-89
2023/09/18 08:53:52;;;;;;;;;;;;;;;29.32;47.79;100516.40;109275;1263;59998;-90
2023/09/18 08:57:19;;;;;;;;;;;;;;;28.75;47.51;100505.59;109247;1263;73012;-90
2023/09/18 09:00:46;;;;;;;;;;;;;;;28.26;47.39;100503.59;109245;1263;67271;-90
2023/09/18 09:04:13;;;;;;;;;;;;;;;27.89;47.44;100503.45;109213;1261;72440;-89
2023/09/18 09:07:40;;;;;;;;;;;;;;;27.57;47.29;100497.60;109262;1263;59302;-90
2023/09/18 09:11:06;;;;;;;;;;;;;;;27.23;47.20;100493.41;109271;1265;59219;-90
2023/09/18 09:14:35;;;;;;;;;;;;;;;26.92;47.26;100480.38;109263;1263;74914;-90
2023/09/18 09:17:59;;;;;;;;;;;;;;;26.72;47.43;100470.22;109313;1263;67150;-89
2023/09/18 09:21:28;;;;;;;;;;;;;;;26.64;47.44;100463.66;109310;1263;71720;-89
2023/09/18 09:25:00;;;;;;;;;;;;;;;26.55;47.65;100461.79;109305;1263;59151;-89
2023/09/18 09:28:26;;;;;;;;;;;;;;;26.41;47.39;100458.75;109326;1262;59681;-89
2023/09/18 09:37:22;;;;;;;;;;;;;;;26.19;47.75;100439.58;109314;1262;72723;-89
2023/09/18 09:40:49;;;;;;;;;;;;;;;26.15;47.75;100438.48;109323;1262;59221;-89
2023/09/18 09:44:18;;;;;;;;;;;;;;;26.08;47.81;100435.55;109376;1262;58878;-89
2023/09/18 09:47:44;;;;;;;;;;;;;;;26.04;48.05;100440.77;109399;1262;73138;-89
2023/09/18 09:51:12;;;;;;;;;;;;;;;26.02;48.13;100439.77;109373;1263;67321;-89
2023/09/18 09:54:40;;;;;;;;;;;;;;;26.00;48.21;100438.36;109358;1262;71687;-89
2023/09/18 09:58:10;;;;;;;;;;;;;;;26.03;48.27;100440.73;109267;1262;58848;-89
2023/09/18 10:01:37;;;;;;;;;;;;;;;26.04;48.38;100433.20;109234;1263;59038;-89
2023/09/18 10:05:03;;;;;;;;;;;;;;;26.06;48.47;100429.16;109202;1263;73970;-89
2023/09/18 10:08:32;;;;;;;;;;;;;;;26.06;48.47;100427.23;109274;1263;67255;-88
2023/09/18 10:12:02;;;;;;;;;;;;;;;26.04;48.61;100421.52;109232;1263;71081;-88
2023/09/18 10:15:31;;;;;;;;;;;;;;;25.99;48.75;100419.85;109224;1263;59215;-89
2023/09/18 10:18:59;;;;;;;;;;;;;;;26.01;48.87;100418.29;109268;1266;59607;-89
2023/09/18 10:28:08;;;;;;;;;;;;;;;25.93;48.88;100416.35;109346;1262;72274;-89
2023/09/18 10:31:35;;;;;;;;;;;;;;;25.90;48.90;100412.15;109321;1262;58810;-90
2023/09/18 10:35:00;;;;;;;;;;;;;;;25.90;49.07;100416.95;109356;1261;58972;-90
2023/09/18 10:38:27;;;;;;;;;;;;;;;25.89;49.07;100411.72;109310;1263;73755;-90
2023/09/18 10:41:54;;;;;;;;;;;;;;;25.88;49.14;100404.27;109354;1262;67406;-89
2023/09/18 10:45:21;;;;;;;;;;;;;;;25.85;49.26;100404.77;109311;1263;71206;-89
2023/09/18 10:48:48;;;;;;;;;;;;;;;25.86;49.30;100401.54;109346;1263;59202;-90
2023/09/18 10:52:14;;;;;;;;;;;;;;;25.84;49.41;100398.19;109354;1262;58854;-90
2023/09/18 10:55:43;;;;;;;;;;;;;;;25.87;49.51;100387.49;109341;1262;73359;-90
2023/09/18 10:59:18;;;;;;;;;;;;;;;25.90;49.56;100382.00;109256;1262;67506;-89
2023/09/18 11:02:45;;;;;;;;;;;;;;;25.94;49.66;100375.66;109347;1263;72348;-90
2023/09/18 11:08:21;;;;;;;;;;;;;;;25.97;49.68;100373.98;109478;1262;59924;-91
2023/09/18 11:59:12;;;;;;;;;;;;;;;26.30;50.05;100344.44;109237;1263;78386;-90
2023/09/18 12:07:49;;;;;;;;;;;;;;;26.28;50.05;100332.38;109258;1264;74145;-90
2023/09/18 12:30:04;;;;;;;;;;;;;;;26.71;49.58;100283.15;109248;1260;59281;-88
2023/09/18 12:32:50;;;;;;;;;;;;;;;26.71;49.67;100274.74;109275;1260;59404;-88
2023/09/18 12:35:37;;;;;;;;;;;;;;;26.76;49.62;100269.13;109125;1260;73276;-88
2023/09/18 12:38:26;;;;;;;;;;;;;;;26.78;49.52;100262.08;109336;1260;67518;-91
2023/09/18 12:41:13;;;;;;;;;;;;;;;26.79;49.53;100260.91;109204;1260;71406;-91
2023/09/18 12:43:59;;;;;;;;;;;;;;;26.80;49.40;100258.88;109289;1260;58991;-91
2023/09/18 12:46:49;;;;;;;;;;;;;;;26.80;49.33;100257.34;109359;1260;58809;-91
2023/09/18 12:49:35;;;;;;;;;;;;;;;26.79;49.25;100256.16;109273;1260;73167;-91
2023/09/18 12:52:22;;;;;;;;;;;;;;;26.77;49.34;100251.95;109222;1261;67203;-91
2023/09/18 12:55:08;;;;;;;;;;;;;;;26.74;49.27;100252.38;101713;1260;10002778;-90
2023/09/18 12:57:55;;;;;;;;;;;;;;;26.71;49.17;100245.73;109299;1260;74205;-90
2023/09/18 13:00:49;;;;;;;;;;;;;;;26.71;49.33;100247.13;109304;1260;67437;-90
2023/09/18 13:03:46;;;;;;;;;;;;;;;26.69;49.38;100253.13;109324;1260;71023;-90
2023/09/18 13:06:34;;;;;;;;;;;;;;;26.65;49.11;100250.30;109253;1260;58979;-91
2023/09/18 13:09:20;;;;;;;;;;;;;;;26.58;49.04;100242.32;109240;1260;59754;-91
2023/09/18 13:12:07;;;;;;;;;;;;;;;26.48;49.13;100236.27;109274;1260;74434;-90
2023/09/18 13:14:58;;;;;;;;;;;;;;;26.42;49.09;100239.88;109288;1260;67258;-90
2023/09/18 13:17:45;;;;;;;;;;;;;;;26.38;49.07;100238.59;109255;1260;71427;-90
2023/09/18 13:20:31;;;;;;;;;;;;;;;26.36;49.08;100226.19;109258;1260;58841;-90
2023/09/18 13:23:17;;;;;;;;;;;;;;;26.37;48.92;100219.72;109218;1260;58975;-90
2023/09/18 13:31:57;;;;;;;;;;;;;;;26.42;48.91;100218.66;109341;1261;71206;-90
2023/09/18 13:34:45;;;;;;;;;;;;;;;26.45;48.91;100223.00;109244;1265;58795;-90
2023/09/18 13:37:31;;;;;;;;;;;;;;;26.47;48.78;100221.55;109387;1260;58908;-90
2023/09/18 13:40:17;;;;;;;;;;;;;;;26.49;48.89;100214.48;109356;1260;73026;-90
2023/09/18 13:43:03;;;;;;;;;;;;;;;26.51;48.81;100211.98;109357;1260;68486;-90
2023/09/18 13:45:53;;;;;;;;;;;;;;;26.54;48.79;100209.20;109283;1260;72409;-90
2023/09/18 13:52:03;;;;;;;;;;;;;;;26.55;48.61;100212.11;109429;1260;58928;-90
2023/09/18 13:54:51;;;;;;;;;;;;;;;26.54;48.59;100203.73;109300;1261;74243;-90
2023/09/18 13:57:40;;;;;;;;;;;;;;;26.53;48.60;100206.83;109345;1261;67135;-90
2023/09/18 14:00:26;;;;;;;;;;;;;;;26.53;48.57;100204.52;109439;1261;71290;-90
2023/09/18 14:03:15;;;;;;;;;;;;;;;26.56;48.63;100202.31;109281;1261;59272;-87
2023/09/18 14:06:02;;;;;;;;;;;;;;;26.58;48.61;100201.79;109305;1263;59807;-88
2023/09/18 14:08:48;;;;;;;;;;;;;;;26.58;48.59;100197.91;109228;1265;73800;-88
2023/09/18 14:12:11;;;;;;;;;;;;;;;26.57;48.62;100192.99;109197;1264;66625;-88
2023/09/18 14:14:57;;;;;;;;;;;;;;;26.58;48.55;100181.41;109384;1260;72080;-88
2023/09/18 14:17:43;;;;;;;;;;;;;;;26.59;48.53;100176.91;109311;1260;58895;-88
2023/09/18 14:20:29;;;;;;;;;;;;;;;26.62;48.59;100176.14;109281;1261;58989;-88
2023/09/18 14:23:15;;;;;;;;;;;;;;;26.65;48.58;100168.48;109416;1263;73306;-88
2023/09/18 14:26:01;;;;;;;;;;;;;;;26.66;48.55;100160.95;109284;1263;67318;-88
2023/09/18 14:28:47;;;;;;;;;;;;;;;26.68;48.61;100157.33;109242;1260;71011;-88
2023/09/18 14:31:34;;;;;;;;;;;;;;;26.71;48.64;100149.70;109332;1260;58936;-88
2023/09/18 14:34:19;;;;;;;;;;;;;;;26.71;48.56;100140.13;109274;1261;59264;-88
2023/09/18 14:37:05;;;;;;;;;;;;;;;26.75;48.55;100133.80;109202;1260;73183;-88
2023/09/18 14:39:51;;;;;;;;;;;;;;;26.79;48.53;100134.65;109267;1261;67083;-88
2023/09/18 14:42:37;;;;;;;;;;;;;;;26.82;48.53;100136.33;109213;1260;71397;-88
2023/09/18 14:45:23;;;;;;;;;;;;;;;26.84;48.61;100137.00;109299;1261;59274;-88
2023/09/18 14:48:09;;;;;;;;;;;;;;;26.87;48.54;100129.85;109209;1261;58834;-88
2023/09/18 14:50:55;;;;;;;;;;;;;;;26.89;48.43;100129.63;109369;1261;73368;-87
2023/09/18 14:53:41;;;;;;;;;;;;;;;26.90;48.39;100126.70;109304;1261;66215;-88
2023/09/18 14:56:27;;;;;;;;;;;;;;;26.92;48.48;100129.88;109346;1260;71143;-87
2023/09/18 14:59:13;;;;;;;;;;;;;;;26.94;48.45;100128.59;109306;1260;59108;-90
2023/09/18 15:01:59;;;;;;;;;;;;;;;26.95;48.48;100128.88;109287;1261;58873;-90
2023/09/18 15:04:45;;;;;;;;;;;;;;;26.96;48.52;100124.60;109222;1261;73736;-90
2023/09/18 15:07:32;;;;;;;;;;;;;;;26.96;48.49;100119.07;109261;1264;67259;-90
2023/09/18 15:10:18;;;;;;;;;;;;;;;26.97;48.56;100121.27;109291;1260;71195;-90
2023/09/18 15:13:04;;;;;;;;;;;;;;;26.95;48.44;100123.42;109272;1260;58797;-90
2023/09/18 15:15:50;;;;;;;;;;;;;;;26.89;48.38;100123.09;109348;1266;59698;-90
2023/09/18 15:18:36;;;;;;;;;;;;;;;26.82;48.48;100120.36;109314;1260;73203;-89
2023/09/18 15:21:22;;;;;;;;;;;;;;;26.73;48.42;100120.16;109305;1261;68754;-90
2023/09/18 15:24:09;;;;;;;;;;;;;;;26.63;48.40;100118.42;109207;1261;71067;-90
2023/09/18 15:26:56;;;;;;;;;;;;;;;26.52;48.35;100114.45;109357;1260;58976;-90
2023/09/18 15:29:42;;;;;;;;;;;;;;;26.45;48.59;100109.83;109235;1261;59324;-90
2023/09/18 15:32:28;;;;;;;;;;;;;;;26.36;48.57;100104.42;109235;1261;73267;-89
2023/09/18 15:35:14;;;;;;;;;;;;;;;26.26;48.55;100105.33;109159;1264;67320;-89
2023/09/18 15:38:00;;;;;;;;;;;;;;;26.16;48.56;100109.08;109281;1260;71277;-89
2023/09/18 15:40:47;;;;;;;;;;;;;;;26.04;48.64;100104.97;109349;1260;59205;-89
2023/09/18 15:43:33;;;;;;;;;;;;;;;25.93;48.74;100100.84;109297;1261;59456;-89
2023/09/18 15:46:19;;;;;;;;;;;;;;;25.84;48.75;100100.65;109285;1260;73074;-89
2023/09/18 15:49:05;;;;;;;;;;;;;;;25.74;48.81;100098.88;109257;1260;68416;-89
2023/09/18 15:51:50;;;;;;;;;;;;;;;25.63;48.84;100101.75;109363;1260;72394;-89
2023/09/18 15:54:36;;;;;;;;;;;;;;;25.52;48.84;100101.58;109315;1260;58950;-89
2023/09/18 15:57:22;;;;;;;;;;;;;;;25.43;48.92;100100.84;109247;1260;59343;-89
2023/09/18 16:00:09;;;;;;;;;;;;;;;25.35;49.01;100100.46;109228;1260;74759;-89
2023/09/18 16:02:55;;;;;;;;;;;;;;;25.26;49.03;100098.05;109329;1260;67069;-89
2023/09/18 16:05:41;;;;;;;;;;;;;;;25.18;49.06;100101.92;109317;1264;72393;-89
2023/09/18 16:08:28;;;;;;;;;;;;;;;25.09;49.18;100100.39;109254;1260;58789;-88
2023/09/18 16:11:15;;;;;;;;;;;;;;;25.01;49.29;100099.30;109292;1261;58185;-88
2023/09/18 16:14:01;;;;;;;;;;;;;;;24.94;49.37;100097.95;109248;1260;74972;-89
2023/09/18 16:16:47;;;;;;;;;;;;;;;24.87;49.44;100096.59;109257;1260;67407;-89
2023/09/18 16:19:33;;;;;;;;;;;;;;;24.82;49.47;100097.77;109240;1260;71157;-89
2023/09/18 16:22:19;;;;;;;;;;;;;;;24.75;49.50;100098.31;109159;1260;58938;-89
2023/09/18 16:25:06;;;;;;;;;;;;;;;24.71;49.74;100095.69;109242;1260;59716;-90
2023/09/18 16:27:53;;;;;;;;;;;;;;;24.65;49.76;100093.30;109241;1260;73258;-89
2023/09/18 16:30:39;;;;;;;;;;;;;;;24.59;49.83;100089.39;109406;1260;67237;-89
2023/09/18 16:33:25;;;;;;;;;;;;;;;24.54;49.98;100090.56;109292;1260;71080;-89
2023/09/18 16:36:11;;;;;;;;;;;;;;;24.49;50.04;100093.64;109271;1260;59213;-89
2023/09/18 16:38:57;;;;;;;;;;;;;;;24.43;50.16;100094.48;109325;1260;59867;-89
2023/09/18 16:41:43;;;;;;;;;;;;;;;24.38;50.25;100085.22;109386;1260;73131;-89
2023/09/18 16:44:29;;;;;;;;;;;;;;;24.32;50.32;100084.64;109142;1260;325607;-89
2023/09/18 16:47:15;;;;;;;;;;;;;;;24.25;50.27;100079.55;109337;1260;71567;-89
2023/09/18 16:50:01;;;;;;;;;;;;;;;24.20;50.41;100080.84;109302;1260;58819;-89
2023/09/18 16:52:47;;;;;;;;;;;;;;;24.13;50.54;100076.80;109386;1260;58832;-89
2023/09/18 16:55:33;;;;;;;;;;;;;;;24.08;50.62;100078.11;109332;1260;72985;-89
2023/09/18 16:58:18;;;;;;;;;;;;;;;24.03;50.66;100078.36;109332;1260;68589;-89
2023/09/18 17:01:05;;;;;;;;;;;;;;;23.97;50.67;100073.33;109299;1264;71233;-89
2023/09/18 17:06:42;;;;;;;14.20;9.90;;;;;;;24.02;51.21;100096.16;104664;1290;600745;-57
2023/09/18 17:09:28;;;;;;;14.90;10.00;;;;;;;23.88;51.25;100091.02;104763;1293;60688;-57
2023/09/18 17:12:15;;;;;;;28.70;10.50;;;;;;;23.68;51.48;100085.88;104727;1293;59089;-57
2023/09/18 17:15:01;;;;;;;;;;;;;;;23.50;51.67;100086.29;104878;1295;73729;-56
2023/09/18 17:17:48;;;;;;;28.30;12.30;;;;;;;23.29;51.81;100087.17;104855;1292;67236;-56
2023/09/18 17:20:34;;;;;;;;;;;;;;;23.04;52.04;100083.30;104779;1290;256337;-57
2023/09/18 17:23:20;;;;;;;;;;;;;;;22.82;52.07;100081.30;105199;1289;59913;-56
2023/09/18 17:26:06;;;;;;;21.20;12.90;;;;;;;22.61;52.00;100082.86;105107;1288;61944;-57
2023/09/18 17:28:53;;;;;;;22.30;14.10;;;;;;;22.44;52.24;100078.87;105169;1288;72104;-57
2023/09/18 17:31:40;;;;;;;;;;;;;;;22.28;52.35;100082.20;105135;1289;67404;-56
2023/09/18 17:34:27;;;;;;;31.50;15.40;;;;;;;22.07;52.67;100085.95;104991;1289;71306;-56
2023/09/18 17:37:14;;;;;;;22.40;15.60;;;;;;;21.89;52.93;100089.02;104970;1289;59617;-56
2023/09/18 17:40:00;;;;;;;24.50;16.90;;;;;;;21.80;53.74;100088.30;105035;1287;60029;-56
2023/09/18 17:42:46;;;;;;;26.70;16.40;;;;;;;21.76;53.85;100089.94;105018;1289;72919;-54
2023/09/18 17:45:33;;;;;;;23.70;16.50;;;;;;;21.69;53.45;100091.67;105036;1289;66632;-56
2023/09/18 17:48:19;;;;;;;29.40;17.00;;;;;;;21.51;53.63;100088.09;105077;1288;71277;-56
2023/09/18 17:51:06;;;;;;;;;;;;;;;21.40;54.20;100093.52;105078;1289;59948;-56
2023/09/18 17:53:52;;;;;;;;;;;;;;;21.30;54.65;100094.27;105123;1289;61164;-55
2023/09/18 17:56:38;;;;;;;25.10;14.80;;;;;;;21.25;54.69;100096.04;105142;1289;73570;-55
2023/09/18 17:59:24;;;;;;;;;;;;;;;21.21;55.13;100092.95;105152;1289;67257;-55
2023/09/18 18:02:11;;;;;;;24.70;15.30;;;;;;;21.19;55.30;100092.77;105038;1289;71436;-56
2023/09/18 18:04:57;;;;;;;23.60;15.70;;;;;;;21.17;55.27;100088.85;105100;1289;60900;-56
2023/09/18 18:07:43;;;;;;;22.60;14.60;;;;;;;21.15;55.57;100088.61;105125;1288;59570;-56
2023/09/18 18:10:29;;;;;;;21.10;15.90;;;;;;;21.14;55.81;100083.90;105066;1289;70654;-56
2023/09/18 18:13:15;;;;;;;21.60;14.50;;;;;;;21.15;56.00;100084.23;105109;1289;68026;-56
2023/09/18 18:16:03;;;;;;;24.50;14.40;;;;;;;21.15;56.15;100084.94;105115;1292;70213;-56
2023/09/18 18:18:50;;;;;;;22.90;14.40;;;;;;;21.14;56.08;100085.34;105114;1289;59544;-56
2023/09/18 18:21:37;;;;;;;17.90;12.50;;;;;;;21.13;56.16;100081.38;105067;1290;59550;-55
2023/09/18 18:24:24;;;;;;;18.30;12.70;;;;;;;21.11;56.24;100080.10;105058;1292;74623;-56
2023/09/18 18:27:10;;;;;;;;;;;;;;;21.11;56.41;100078.50;104937;1289;67211;-56
2023/09/18 18:29:56;;;;;;;;;;;;;;;21.13;56.38;100081.86;105014;1289;73945;-56
2023/09/18 18:32:43;;;;;;;20.80;12.30;;;;;;;21.13;56.48;100077.52;105013;1292;61027;-56
2023/09/18 18:35:29;;;;;;;19.00;12.20;;;;;;;21.10;56.79;100076.12;104975;1289;61008;-56
2023/09/18 18:38:16;;;;;;;14.40;12.70;;;;;;;21.07;56.96;100073.69;104950;1289;71697;-56
2023/09/18 18:41:03;;;;;;;;;;;;;;;21.09;57.39;100071.28;105016;1288;71336;-58
2023/09/18 18:43:49;;;;;;;20.60;12.20;;;;;;;21.10;57.39;100068.23;105019;1289;71290;-56
2023/09/18 18:46:35;;;;;;;21.10;11.50;;;;;;;21.16;57.72;100062.27;105052;1288;59653;-55
2023/09/18 18:49:21;;;;;;;16.50;12.50;;;;;;;21.24;57.60;100059.30;105072;1288;61772;-54
2023/09/18 18:52:08;;;;;;;28.50;13.40;;;;;;;21.27;57.58;100060.16;105046;1289;72643;-56
2023/09/18 18:54:54;;;;;;;15.20;13.10;;;;;;;21.28;57.81;100057.44;105051;1289;69954;-56
2023/09/18 18:57:40;;;;;;;13.00;11.60;;;;;;;21.29;57.85;100054.23;104973;1289;71282;-56
2023/09/18 19:00:26;;;;;;;23.00;11.70;;;;;;;21.30;58.04;100054.27;105030;1292;60976;-55
2023/09/18 19:03:13;;;;;;;17.20;12.40;;;;;;;21.31;58.20;100054.45;105039;1290;59099;-56
2023/09/18 19:06:02;;;;;;;;;;;;;;;21.30;58.44;100056.04;105026;1289;71831;-56
2023/09/18 19:08:48;;;;;;;14.70;12.00;;;;;;;21.28;58.29;100051.14;105004;1292;67355;-56
2023/09/18 19:11:35;;;;;;;15.80;13.00;;;;;;;21.23;58.59;100053.61;105087;1291;73450;-56
2023/09/18 19:14:22;;;;;;;19.00;12.00;;;;;;;21.21;58.65;100049.13;104935;1289;60111;-56
2023/09/18 19:17:08;;;;;;;20.90;12.40;;;;;;;21.20;58.84;100049.05;105111;1289;59761;-56
2023/09/18 19:19:54;;;;;;;18.40;12.30;;;;;;;21.18;58.82;100044.55;105137;1288;71594;-56
2023/09/18 19:22:40;;;;;;;27.30;12.70;;;;;;;21.18;59.03;100042.70;105111;1288;67190;-56
2023/09/18 19:25:31;;;;;;;17.10;12.80;;;;;;;21.17;59.03;100038.89;105107;1289;72008;-56
2023/09/18 19:28:18;;;;;;;18.90;13.30;;;;;;;21.17;59.13;100033.59;106095;1289;58184;-56
2023/09/18 19:31:06;;;;;;;21.30;12.50;;;;;;;21.20;59.19;100028.54;106362;1289;60654;-56
2023/09/18 19:33:52;;;;;;;18.50;12.20;;;;;;;21.20;58.98;100027.95;106356;1289;71606;-56
2023/09/18 19:36:37;;;;;;;15.20;13.00;;;;;;;21.23;59.18;100030.09;106405;1289;68265;-55
2023/09/18 19:39:24;;;;;;;17.90;11.50;;;;;;;21.23;59.26;100025.90;106403;1288;72322;-56
2023/09/18 19:42:10;;;;;;;17.00;13.10;;;;;;;21.22;59.57;100020.30;105961;1291;347420;-56
2023/09/18 19:44:56;;;;;;;18.00;12.50;;;;;;;21.22;59.81;100016.84;106110;1291;60506;-56
2023/09/18 19:47:42;;;;;;;16.30;12.90;;;;;;;21.22;59.71;100019.98;106126;1291;72524;-56
2023/09/18 19:50:30;;;;;;;16.50;12.60;;;;;;;21.22;59.76;100018.22;106173;1292;68331;-56
2023/09/18 19:53:16;;;;;;;27.10;13.50;;;;;;;21.22;59.90;100014.88;105921;1292;72662;-58
2023/09/18 19:56:04;;;;;;;;;;;;;;;21.24;59.89;100014.61;104857;1292;59650;-55
2023/09/18 19:58:51;;;;;;;13.50;11.90;;;;;;;21.21;60.00;100010.73;104734;1292;59547;-56
2023/09/18 20:01:36;;;;;;;;;;;;;;;21.20;60.10;100011.12;106167;1292;71601;-55
2023/09/18 20:04:22;;;;;;;20.00;13.10;;;;;;;21.21;59.89;100012.52;106175;1291;68930;-57
2023/09/18 20:07:08;;;;;;;18.80;13.20;;;;;;;21.21;60.01;100012.51;105652;1291;71224;-56
2023/09/18 20:09:55;;;;;;;14.30;12.40;;;;;;;21.18;60.11;100006.71;104826;1292;59561;-56
2023/09/18 20:12:41;;;;;;;16.70;12.90;;;;;;;21.17;60.34;100004.73;104834;1292;59519;-56
2023/09/18 20:15:27;;;;;;;20.10;12.80;;;;;;;21.16;60.44;100006.88;104810;1292;74377;-56
2023/09/18 20:18:15;;;;;;;15.80;13.20;;;;;;;21.15;60.49;100002.73;104882;1291;67374;-56
2023/09/18 20:21:02;;;;;;;17.40;12.00;;;;;;;21.13;60.75;100001.08;104738;1291;71199;-56
2023/09/18 20:23:48;;;;;;;20.90;12.60;;;;;;;21.13;60.78;99999.54;104897;1290;62309;-56
2023/09/18 20:26:35;;;;;;;17.30;12.70;;;;;;;21.13;60.92;99994.09;104848;1292;59512;-56
2023/09/18 20:29:21;;;;;;;16.30;11.70;;;;;;;21.13;60.84;99987.92;104868;1294;70583;-56
2023/09/18 20:32:08;;;;;;;15.10;13.50;;;;;;;21.12;60.90;99988.70;104857;1292;70040;-56
2023/09/18 20:34:54;;;;;;;16.80;12.40;;;;;;;21.09;60.83;99985.28;104840;1292;71544;-56
2023/09/18 20:37:40;;;;;;;21.60;12.40;;;;;;;21.02;61.05;99986.46;104833;1292;59521;-56
2023/09/18 20:40:26;;;;;;;21.50;12.70;;;;;;;20.93;61.27;99986.87;104817;1292;61017;-57
2023/09/18 20:43:12;;;;;;;13.80;12.30;;;;;;;20.90;61.44;99987.14;104807;1292;74778;-57
2023/09/18 20:45:59;;;;;;;21.30;12.00;;;;;;;20.88;61.47;99986.38;104893;1292;67358;-56
2023/09/18 20:48:45;;;;;;;26.50;14.00;;;;;;;20.90;61.45;99987.64;104797;1291;70228;-55
2023/09/18 20:51:32;;;;;;;15.70;11.90;;;;;;;20.89;61.40;99984.41;104793;1291;61360;-56
2023/09/18 20:54:19;;;;;;;21.60;11.90;;;;;;;20.83;61.49;99983.54;104854;1292;59256;-57
2023/09/18 20:57:06;;;;;;;23.30;12.40;;;;;;;20.77;61.76;99984.70;104797;1292;72194;-56
2023/09/18 20:59:53;;;;;;;18.50;12.00;;;;;;;20.70;61.77;99985.14;104912;1292;69126;-56
2023/09/18 21:02:44;;;;;;;18.50;12.80;;;;;;;20.65;61.97;99988.35;104701;1292;70291;-57
2023/09/18 21:05:31;;;;;;;21.40;12.60;;;;;;;20.55;61.97;99981.30;104829;1292;59563;-55
2023/09/18 21:08:17;;;;;;;18.80;13.10;;;;;;;20.49;62.13;99987.09;104877;1292;60281;-57
2023/09/18 21:11:04;;;;;;;18.30;13.00;;;;;;;20.44;62.12;99989.55;104823;1291;71752;-56
2023/09/18 21:13:50;;;;;;;16.80;13.20;;;;;;;20.39;62.33;99990.24;104820;1292;66482;-55
2023/09/18 21:16:36;;;;;;;18.20;12.30;;;;;;;20.35;62.64;99996.77;104786;1292;71185;-56
2023/09/18 21:19:23;;;;;;;22.30;13.30;;;;;;;20.31;62.91;100000.02;104814;1292;59567;-56
2023/09/18 21:22:10;;;;;;;17.80;12.80;;;;;;;20.27;62.95;99993.34;104846;1292;59656;-56
2023/09/18 21:24:56;;;;;;;14.30;12.40;;;;;;;20.24;63.18;99995.24;104853;1295;71503;-56
2023/09/18 21:27:43;;;;;;;16.40;13.70;;;;;;;20.29;63.50;100001.01;104815;1292;68350;-56
2023/09/18 21:30:30;;;;;;;21.70;14.20;;;;;;;20.35;63.29;100003.08;104826;1291;75414;-56
2023/09/18 21:33:16;;;;;;;18.90;13.30;;;;;;;20.38;63.23;100001.48;104847;1292;59526;-56
2023/09/18 21:36:20;;;;;;;15.00;13.40;;;;;;;20.40;63.28;99999.77;104835;1291;60054;-56
2023/09/18 21:39:08;;;;;;;15.60;13.40;;;;;;;20.43;63.35;99996.48;104903;1291;73381;-56
2023/09/18 21:41:54;;;;;;;17.80;14.30;;;;;;;20.40;63.70;100003.64;104933;1291;69189;-56
2023/09/18 21:44:40;;;;;;;15.40;13.80;;;;;;;20.36;63.67;100006.48;104822;1292;71286;-57
2023/09/18 21:47:26;;;;;;;15.10;13.60;;;;;;;20.36;63.66;100004.95;104795;1292;60354;-56
2023/09/18 21:50:13;;;;;;;21.20;13.90;;;;;;;20.34;63.77;100006.96;104860;1293;60319;-56
2023/09/18 21:52:59;;;;;;;15.70;14.10;;;;;;;20.34;63.96;100012.61;104841;1292;72392;-55
2023/09/18 21:55:46;;;;;;;17.20;12.90;;;;;;;20.33;63.77;100018.62;104833;1291;69235;-56
2023/09/18 21:58:32;;;;;;;19.00;14.50;;;;;;;20.29;63.90;100028.20;104740;1292;71092;-56
2023/09/18 22:01:22;;;;;;;17.00;13.50;;;;;;;20.22;64.18;100029.39;104724;1292;60466;-56
2023/09/18 22:04:10;;;;;;;16.90;13.90;;;;;;;20.20;64.30;100033.20;104699;1291;61708;-57
2023/09/18 22:06:57;;;;;;;19.30;15.00;;;;;;;20.14;64.61;100031.08;104765;1291;72379;-56
2023/09/18 22:09:48;;;;;;;21.80;13.70;;;;;;;20.09;64.49;100034.52;104847;1291;68151;-57
2023/09/18 22:12:34;;;;;;;19.60;15.70;;;;;;;20.02;64.88;100041.32;104868;1292;73109;-56
2023/09/18 22:15:20;;;;;;;21.30;15.10;;;;;;;19.99;64.71;100042.95;104894;1292;60475;-56
2023/09/18 22:18:07;;;;;;;;;;;;;;;19.96;64.92;100045.73;104864;1292;63431;-57
2023/09/18 22:20:53;;;;;;;15.70;13.50;;;;;;;19.92;64.82;100050.91;104828;1292;72522;-56
2023/09/18 22:23:40;;;;;;;16.10;13.00;;;;;;;19.91;65.08;100052.21;104792;1291;67268;-56
2023/09/18 22:26:26;;;;;;;12.10;11.00;;;;;;;19.90;65.58;100049.44;104821;1292;71259;-56
2023/09/18 22:29:15;;;;;;;17.20;10.70;;;;;;;20.05;68.79;100053.89;104919;1292;61025;-55
2023/09/18 22:32:01;;;;;;;10.70;9.50;;;;;;;20.23;67.14;100059.20;104822;1292;61872;-55
2023/09/18 22:34:48;;;;;;;11.70;9.30;;;;;;;20.34;67.58;100060.92;104779;1291;71337;-57
2023/09/18 22:37:36;;;;;;;8.40;7.70;;;;;;;20.38;66.57;100064.15;104826;1292;70010;-55